Time;durP1;ratioP1;P1;durP2;ratioP2;P2;SDS_P1;SDS_P2;PMS_P1;PMS_P2;Temp;Humidity;BMP_temperature;BMP_pressure;BME280_temperature;BME280_humidity;BME280_pressure;Samples;Min_cycle;Max_cycle;Signal;HPM_P1;HPM_P2
2022/11/21 00:03:05;;;;;;;3.63;1.90;;;7.80;99.90;;;;;;20923422;28;20542;-62
2022/11/21 00:13:12;;;;;;;4.17;1.70;;;7.80;99.90;;;;;;20922852;28;20235;-62
2022/11/21 00:23:14;;;;;;;5.67;1.70;;;7.90;99.90;;;;;;20921875;28;20203;-61
2022/11/21 00:33:16;;;;;;;4.97;1.80;;;7.80;99.90;;;;;;20920749;28;20314;-63
2022/11/21 00:43:18;;;;;;;5.70;1.80;;;;;;;;;;20920537;28;20211;-61
2022/11/21 00:53:19;;;;;;;6.97;1.77;;;7.90;99.90;;;;;;20919552;28;20243;-72
2022/11/21 01:03:21;;;;;;;6.73;1.80;;;7.90;99.90;;;;;;20917996;28;20219;-61
2022/11/21 01:13:23;;;;;;;3.00;1.50;;;;;;;;;;20918601;28;20751;-71
2022/11/21 01:23:26;;;;;;;3.13;1.40;;;7.90;99.90;;;;;;20917114;28;20609;-69
2022/11/21 01:33:27;;;;;;;3.33;1.50;;;7.70;99.90;;;;;;20915858;28;20235;-71
2022/11/21 01:43:29;;;;;;;2.37;1.30;;;7.80;99.90;;;;;;20915858;28;20207;-76
2022/11/21 01:53:32;;;;;;;4.70;1.27;;;7.80;99.90;;;;;;20914807;28;20229;-76
2022/11/21 02:03:37;;;;;;;2.03;1.30;;;7.80;99.90;;;;;;20914086;28;20655;-64
2022/11/21 02:13:38;;;;;;;3.23;1.00;;;7.70;99.90;;;;;;20913600;28;20598;-71
2022/11/21 02:23:53;;;;;;;3.47;1.47;;;7.70;99.90;;;;;;20912919;28;20214;-68
2022/11/21 02:34:00;;;;;;;2.77;1.23;;;7.80;99.90;;;;;;20912246;28;20611;-64
2022/11/21 02:44:08;;;;;;;5.30;1.40;;;7.80;99.90;;;;;;20912080;28;20208;-68
2022/11/21 02:54:09;;;;;;;4.87;1.80;;;7.80;99.90;;;;;;20912039;28;20291;-75
2022/11/21 03:04:11;;;;;;;7.03;2.13;;;7.80;99.90;;;;;;20911348;28;20213;-65
2022/11/21 03:14:12;;;;;;;6.70;3.13;;;7.90;99.90;;;;;;20910890;28;20235;-75
2022/11/21 03:24:14;;;;;;;9.57;2.27;;;7.90;99.90;;;;;;20918560;28;20260;-73
2022/11/21 03:34:16;;;;;;;6.23;1.83;;;8.00;99.90;;;;;;20925429;28;20240;-71
2022/11/21 03:44:17;;;;;;;10.13;2.00;;;8.00;99.90;;;;;;20924991;28;20212;-73
2022/11/21 03:54:19;;;;;;;11.17;1.93;;;8.20;99.70;;;;;;20924468;28;20243;-67
2022/11/21 04:04:21;;;;;;;7.57;2.50;;;8.00;99.20;;;;;;20923417;28;20222;-63
2022/11/21 04:14:23;;;;;;;8.57;2.00;;;;;;;;;;20922533;28;20240;-63
2022/11/21 04:24:25;;;;;;;6.83;1.90;;;;;;;;;;20922254;28;20203;-63
2022/11/21 04:34:27;;;;;;;5.90;1.70;;;8.20;98.70;;;;;;20920893;28;20328;-63
2022/11/21 04:44:29;;;;;;;9.37;2.10;;;8.20;98.60;;;;;;20922184;28;20223;-64
2022/11/21 04:54:31;;;;;;;8.73;1.87;;;8.20;98.50;;;;;;20919854;28;20271;-75
2022/11/21 05:04:33;;;;;;;5.33;1.90;;;8.30;98.10;;;;;;20918552;28;20210;-75
2022/11/21 05:14:34;;;;;;;9.47;2.50;;;8.30;97.90;;;;;;20916421;28;20239;-69
2022/11/21 05:24:36;;;;;;;6.67;1.80;;;8.30;97.80;;;;;;20916827;28;20210;-75
2022/11/21 05:34:38;;;;;;;4.50;2.47;;;8.30;97.80;;;;;;20915043;28;20248;-75
2022/11/21 05:44:40;;;;;;;6.80;1.90;;;;;;;;;;20913393;28;20565;-74
2022/11/21 05:54:41;;;;;;;4.03;1.63;;;8.20;97.90;;;;;;20914662;28;20242;-64
2022/11/21 06:04:46;;;;;;;5.93;1.70;;;8.20;98.10;;;;;;20913813;28;20230;-63
2022/11/21 06:14:48;;;;;;;4.93;2.03;;;8.30;98.10;;;;;;20912543;28;20262;-65
2022/11/21 06:24:50;;;;;;;4.03;1.93;;;8.20;98.20;;;;;;20912644;28;20266;-66
2022/11/21 06:34:51;;;;;;;4.83;1.60;;;8.20;98.20;;;;;;20912153;28;20249;-64
2022/11/21 06:44:53;;;;;;;4.00;1.60;;;8.30;98.30;;;;;;20911158;28;20209;-65
2022/11/21 06:54:55;;;;;;;9.00;2.60;;;8.30;98.20;;;;;;20911898;28;20231;-64
2022/11/21 07:04:56;;;;;;;4.40;1.80;;;8.30;98.40;;;;;;20888844;28;20207;-64
2022/11/21 07:14:58;;;;;;;6.90;1.70;;;8.20;98.50;;;;;;20841645;28;20240;-64
2022/11/21 07:25:00;;;;;;;3.40;1.67;;;;;;;;;;20842469;28;20217;-63
2022/11/21 07:35:02;;;;;;;9.83;3.13;;;8.30;98.90;;;;;;20840677;28;20243;-64
2022/11/21 07:45:04;;;;;;;5.13;1.60;;;8.20;99.10;;;;;;20838971;28;20222;-64
2022/11/21 07:55:06;;;;;;;6.37;1.87;;;8.20;99.50;;;;;;20838431;28;20234;-64
2022/11/21 08:05:08;;;;;;;4.63;1.80;;;8.30;99.80;;;;;;20837613;28;20258;-63
2022/11/21 08:15:10;;;;;;;5.60;1.63;;;8.30;99.80;;;;;;20836911;28;20642;-63
2022/11/21 08:25:12;;;;;;;3.40;1.57;;;;;;;;;;20836474;28;20219;-63
2022/11/21 08:35:14;;;;;;;2.83;1.70;;;8.30;99.60;;;;;;20833612;28;20244;-63
2022/11/21 08:45:16;;;;;;;7.57;2.50;;;8.40;99.60;;;;;;20833846;28;20207;-63
2022/11/21 08:55:17;;;;;;;3.80;2.33;;;8.30;99.50;;;;;;20839551;28;20230;-64
2022/11/21 09:05:19;;;;;;;4.67;2.23;;;8.40;99.70;;;;;;20879096;28;20207;-63
2022/11/21 09:25:42;;;;;;;4.53;1.90;;;8.70;99.70;;;;;;20830466;28;20205;-63
2022/11/21 09:35:44;;;;;;;3.43;1.90;;;8.80;99.70;;;;;;20902499;28;20241;-62
2022/11/21 09:45:48;;;;;;;4.03;1.80;;;8.90;99.70;;;;;;20911348;28;20675;-64
2022/11/21 09:56:05;;;;;;;4.23;1.83;;;9.10;99.70;;;;;;20911703;28;20251;-63
2022/11/21 10:06:19;;;;;;;8.33;2.10;;;9.30;99.30;;;;;;20867887;28;20258;-62
2022/11/21 10:16:59;;;;;;;5.97;2.17;;;9.30;99.20;;;;;;20827715;28;20295;-65
2022/11/21 10:27:24;;;;;;;7.50;1.90;;;9.30;98.90;;;;;;20820878;28;20263;-62
2022/11/21 10:38:07;;;;;;;4.20;2.00;;;9.20;98.70;;;;;;20825278;28;20253;-66
2022/11/21 10:48:08;;;;;;;6.07;2.07;;;9.20;98.90;;;;;;20815133;28;20209;-71
2022/11/21 10:58:18;;;;;;;3.87;2.00;;;9.00;98.80;;;;;;20825715;28;20719;-70
2022/11/21 11:08:19;;;;;;;4.23;1.80;;;9.00;98.90;;;;;;20885377;28;20560;-73
2022/11/21 11:18:23;;;;;;;4.37;1.87;;;9.20;99.30;;;;;;20906881;28;20236;-70
2022/11/21 11:28:35;;;;;;;4.03;2.00;;;9.30;99.00;;;;;;20906548;28;20223;-72
2022/11/21 11:38:36;;;;;;;3.80;2.23;;;9.30;99.30;;;;;;20906405;28;20280;-72
2022/11/21 11:48:38;;;;;;;4.83;2.20;;;9.30;98.90;;;;;;20918706;28;20564;-74
2022/11/21 11:59:16;;;;;;;5.47;2.47;;;9.30;99.10;;;;;;20921665;28;20266;-72
2022/11/21 12:09:33;;;;;;;9.03;3.47;;;10.40;97.60;;;;;;20851898;28;20227;-73
2022/11/21 12:19:37;;;;;;;3.17;1.63;;;11.00;96.10;;;;;;20836472;28;20588;-72
2022/11/21 12:30:00;;;;;;;4.37;2.20;;;11.00;93.90;;;;;;20833866;28;20255;-73
2022/11/21 12:40:11;;;;;;;2.70;1.67;;;10.60;93.00;;;;;;20835087;28;20597;-73
2022/11/21 13:01:17;;;;;;;3.17;1.70;;;10.30;93.20;;;;;;20835829;28;20590;-72
2022/11/21 13:12:00;;;;;;;2.67;1.80;;;10.40;93.00;;;;;;20835127;28;20263;-70
2022/11/21 13:22:01;;;;;;;2.60;1.50;;;10.60;92.50;;;;;;20832822;28;20765;-76
2022/11/21 13:32:42;;;;;;;3.73;1.43;;;10.40;91.60;;;;;;20832884;28;20271;-75
2022/11/21 13:43:22;;;;;;;2.63;1.53;;;10.30;90.70;;;;;;20830049;28;20239;-72
2022/11/21 13:53:46;;;;;;;3.63;1.50;;;10.20;90.70;;;;;;20831752;28;20220;-72
2022/11/21 14:04:14;;;;;;;2.27;1.53;;;10.10;89.80;;;;;;20830282;28;20222;-73
2022/11/21 14:14:47;;;;;;;3.40;1.60;;;10.20;89.70;;;;;;20830196;28;20231;-70
2022/11/21 14:24:52;;;;;;;4.33;1.40;;;10.00;90.10;;;;;;20829162;28;20203;-73
2022/11/21 14:35:07;;;;;;;3.47;1.90;;;9.80;91.00;;;;;;20829110;28;20251;-72
2022/11/21 14:45:19;;;;;;;6.23;3.60;;;9.60;91.50;;;;;;20829147;28;20268;-73
2022/11/21 14:55:29;;;;;;;5.10;2.50;;;9.40;92.00;;;;;;20828730;28;20234;-71
2022/11/21 15:05:33;;;;;;;5.23;2.10;;;9.10;92.80;;;;;;20828216;28;20295;-70
2022/11/21 15:15:56;;;;;;;6.60;2.60;;;8.90;93.10;;;;;;20829318;28;20347;-66
2022/11/21 15:25:58;;;;;;;6.83;2.83;;;8.60;93.60;;;;;;20844549;28;20204;-68
2022/11/21 15:36:12;;;;;;;4.83;3.03;;;8.50;93.80;;;;;;20843851;28;20240;-67
2022/11/21 15:46:33;;;;;;;12.20;3.50;;;8.20;94.50;;;;;;20842431;28;20207;-73
2022/11/21 15:56:35;;;;;;;11.70;4.53;;;7.90;94.80;;;;;;20840906;28;20665;-65
2022/11/21 16:06:36;;;;;;;9.00;3.73;;;7.70;95.10;;;;;;20879918;28;20246;-63
2022/11/21 16:22:22;;;;;;;9.03;4.70;;;7.50;95.70;;;;;;21065864;27;20598;-64
2022/11/21 16:32:24;;;;;;;12.37;4.30;;;7.40;95.90;;;;;;21064358;28;20240;-65
2022/11/21 16:42:26;;;;;;;13.20;6.40;;;7.20;96.10;;;;;;21064066;28;20220;-64
2022/11/21 16:52:32;;;;;;;12.47;5.97;;;7.20;96.40;;;;;;21065506;28;20228;-64
2022/11/21 17:02:36;;;;;;;12.20;6.97;;;7.10;96.80;;;;;;21064780;28;20288;-69
2022/11/21 17:12:39;;;;;;;12.00;5.83;;;7.10;97.10;;;;;;21063892;28;20657;-66
2022/11/21 17:22:41;;;;;;;9.43;5.27;;;7.10;97.30;;;;;;21064799;28;20218;-69
2022/11/21 17:32:43;;;;;;;12.67;5.53;;;7.10;97.40;;;;;;21012307;28;20209;-72
2022/11/21 17:42:44;;;;;;;9.20;4.50;;;7.00;97.50;;;;;;20957150;28;20206;-69
2022/11/21 17:52:49;;;;;;;9.77;4.57;;;7.00;97.50;;;;;;21003205;28;20226;-72
2022/11/21 18:02:50;;;;;;;15.37;5.60;;;7.00;97.90;;;;;;21003457;28;20207;-70
2022/11/21 18:12:52;;;;;;;10.77;6.33;;;6.90;97.60;;;;;;21003646;28;20289;-71
2022/11/21 18:22:54;;;;;;;14.83;6.50;;;6.90;97.90;;;;;;21003263;28;20266;-71
2022/11/21 18:32:56;;;;;;;21.87;10.03;;;6.90;97.80;;;;;;21003127;28;20229;-71
2022/11/21 18:42:57;;;;;;;26.00;11.20;;;6.90;97.80;;;;;;20999518;28;20650;-68
2022/11/21 18:52:59;;;;;;;14.73;6.50;;;6.90;97.80;;;;;;20999037;28;20233;-70
2022/11/21 19:03:00;;;;;;;16.20;7.83;;;6.90;97.80;;;;;;20999838;28;20206;-71
2022/11/21 19:13:03;;;;;;;13.53;7.70;;;6.90;97.90;;;;;;20998451;28;20229;-71
2022/11/21 19:23:05;;;;;;;16.37;7.60;;;6.90;98.00;;;;;;20998381;28;20268;-70
2022/11/21 19:33:06;;;;;;;9.73;6.00;;;6.90;98.20;;;;;;20997431;28;20232;-71
2022/11/21 19:43:08;;;;;;;12.77;6.80;;;6.90;98.30;;;;;;20995776;28;20212;-72
2022/11/21 19:53:10;;;;;;;11.47;5.00;;;6.90;98.00;;;;;;20993758;28;20255;-70
2022/11/21 20:03:12;;;;;;;12.00;5.40;;;7.00;98.10;;;;;;20993276;28;20222;-71
2022/11/21 20:13:13;;;;;;;10.57;6.00;;;7.00;98.30;;;;;;20992781;28;20294;-71
2022/11/21 20:23:15;;;;;;;11.90;5.93;;;7.00;98.00;;;;;;20992753;28;20263;-70
2022/11/21 20:33:17;;;;;;;12.13;6.80;;;6.90;98.10;;;;;;20992386;28;20699;-71
2022/11/21 20:43:19;;;;;;;13.73;6.63;;;6.70;98.30;;;;;;20991606;28;20252;-70
2022/11/21 20:53:20;;;;;;;11.87;7.07;;;6.70;98.30;;;;;;20991711;28;20757;-70
2022/11/21 21:03:42;;;;;;;12.53;7.03;;;6.80;98.60;;;;;;20999293;28;20305;-70
2022/11/21 21:13:46;;;;;;;14.93;8.00;;;6.80;98.70;;;;;;21005681;28;20276;-70
2022/11/21 21:24:02;;;;;;;18.60;8.37;;;6.80;98.60;;;;;;21005444;28;20260;-71
2022/11/21 21:34:04;;;;;;;16.63;9.33;;;;;;;;;;21004283;28;20303;-71
2022/11/21 21:44:06;;;;;;;16.00;9.03;;;6.60;98.90;;;;;;21003575;28;20220;-70
2022/11/21 21:54:17;;;;;;;16.17;7.80;;;6.60;99.00;;;;;;21002795;28;20283;-70
2022/11/21 22:04:19;;;;;;;13.97;7.93;;;6.70;98.90;;;;;;21002352;28;20208;-71
2022/11/21 22:14:20;;;;;;;13.20;8.20;;;6.80;99.00;;;;;;21001225;28;20720;-71
2022/11/21 22:24:22;;;;;;;11.53;7.10;;;6.80;98.90;;;;;;21001255;28;20214;-71
2022/11/21 22:34:27;;;;;;;12.70;6.90;;;6.80;98.80;;;;;;20999930;28;20237;-71
2022/11/21 22:44:29;;;;;;;10.67;6.40;;;6.90;98.80;;;;;;20996939;28;20210;-70
2022/11/21 22:54:31;;;;;;;12.90;7.00;;;6.90;98.60;;;;;;20998465;28;20246;-70
2022/11/21 23:04:33;;;;;;;12.33;6.20;;;6.90;98.70;;;;;;20997368;28;20273;-68
2022/11/21 23:14:35;;;;;;;9.10;5.90;;;6.90;98.60;;;;;;20996258;28;20240;-69
2022/11/21 23:24:37;;;;;;;9.93;6.57;;;7.00;98.60;;;;;;20995710;28;20207;-70
2022/11/21 23:34:38;;;;;;;13.87;5.83;;;6.80;98.40;;;;;;20994838;28;20241;-70
2022/11/21 23:44:40;;;;;;;12.90;5.30;;;6.90;98.40;;;;;;20994530;28;20211;-70
2022/11/21 23:54:42;;;;;;;8.03;5.07;;;6.90;98.40;;;;;;20994127;28;20700;-71
